createdAt,value
2023-01-18T00:00:37.136Z,40.90
2023-01-18T00:03:20.338Z,41.40
2023-01-18T00:05:47.273Z,50.60
2023-01-18T00:08:19.032Z,39.60
2023-01-18T00:10:46.094Z,43.70
2023-01-18T00:13:12.934Z,42.00
2023-01-18T00:15:39.775Z,42.40
2023-01-18T00:18:06.712Z,41.00
2023-01-18T00:20:33.469Z,44.40
2023-01-18T00:23:01.221Z,47.40
2023-01-18T00:25:29.708Z,51.10
2023-01-18T00:27:56.881Z,52.10
2023-01-18T00:30:26.365Z,55.90
2023-01-18T00:32:56.760Z,57.70
2023-01-18T00:35:25.373Z,56.30
2023-01-18T00:37:53.349Z,51.30
2023-01-18T00:40:21.612Z,52.20
2023-01-18T00:43:07.951Z,51.90
2023-01-18T00:45:34.956Z,48.60
2023-01-18T00:50:29.470Z,42.00
2023-01-18T00:52:58.364Z,43.90
2023-01-18T00:55:25.913Z,40.80
2023-01-18T00:57:53.278Z,40.70
2023-01-18T01:00:26.105Z,39.50
2023-01-18T01:02:53.818Z,38.20
2023-01-18T01:05:42.066Z,34.10
2023-01-18T01:08:16.595Z,34.20
2023-01-18T01:10:48.773Z,44.70
2023-01-18T01:13:39.560Z,53.10
2023-01-18T01:16:27.854Z,44.90
2023-01-18T01:19:14.525Z,45.30
2023-01-18T01:22:00.407Z,38.80
2023-01-18T01:24:46.194Z,38.50
2023-01-18T01:27:13.442Z,40.20
2023-01-18T01:32:07.743Z,42.10
2023-01-18T01:37:03.588Z,44.40
2023-01-18T01:39:30.536Z,39.50
2023-01-18T01:41:57.881Z,39.20
2023-01-18T01:44:27.591Z,44.50
2023-01-18T01:47:21.368Z,44.10
2023-01-18T01:49:56.897Z,35.50
2023-01-18T01:52:33.080Z,35.40
2023-01-18T01:55:04.115Z,39.30
2023-01-18T01:57:54.222Z,40.00
2023-01-18T02:00:23.871Z,40.70
2023-01-18T02:02:59.392Z,42.80
2023-01-18T02:05:29.384Z,39.10
2023-01-18T02:08:00.866Z,36.50
2023-01-18T02:10:29.206Z,41.10
2023-01-18T02:12:57.804Z,38.90
2023-01-18T02:15:49.619Z,39.00
2023-01-18T02:18:29.263Z,36.90
2023-01-18T02:21:02.248Z,33.90
2023-01-18T02:23:34.823Z,34.90
2023-01-18T02:26:24.715Z,31.50
2023-01-18T02:29:13.097Z,35.50
2023-01-18T02:32:03.555Z,35.00
2023-01-18T02:34:47.293Z,36.60
2023-01-18T02:37:17.107Z,38.30
2023-01-18T02:39:57.367Z,34.60
2023-01-18T02:42:46.784Z,37.70
2023-01-18T02:45:59.483Z,42.80
2023-01-18T02:48:36.434Z,41.00
2023-01-18T02:51:03.791Z,43.10
2023-01-18T02:53:32.983Z,44.00
2023-01-18T02:56:09.771Z,40.30
2023-01-18T02:58:48.136Z,41.70
2023-01-18T03:01:36.634Z,41.80
2023-01-18T03:04:41.666Z,36.60
2023-01-18T03:07:21.208Z,44.80
2023-01-18T03:09:48.675Z,44.80
2023-01-18T03:12:48.081Z,35.70
2023-01-18T03:15:39.495Z,42.70
2023-01-18T03:18:27.121Z,40.80
2023-01-18T03:20:56.631Z,56.40
2023-01-18T03:23:39.506Z,49.90
2023-01-18T03:26:16.461Z,73.80
2023-01-18T03:29:16.754Z,48.60
2023-01-18T03:32:09.915Z,51.50
2023-01-18T03:34:55.291Z,45.50
2023-01-18T03:37:38.006Z,46.90
2023-01-18T03:40:18.275Z,46.10
2023-01-18T03:43:01.288Z,45.00
2023-01-18T03:45:33.322Z,46.40
2023-01-18T03:48:01.932Z,44.80
2023-01-18T03:50:41.785Z,49.90
2023-01-18T03:53:14.266Z,50.20
2023-01-18T03:55:48.627Z,44.00
2023-01-18T03:58:21.334Z,41.70
2023-01-18T04:00:48.293Z,41.70
2023-01-18T04:05:41.993Z,41.30
2023-01-18T04:10:35.883Z,36.40
2023-01-18T04:13:02.827Z,37.40
2023-01-18T04:15:29.774Z,38.80
2023-01-18T04:17:56.515Z,37.40
2023-01-18T04:20:23.569Z,39.90
2023-01-18T04:22:54.414Z,37.60
2023-01-18T04:25:22.094Z,36.80
2023-01-18T04:27:48.908Z,40.80
2023-01-18T04:30:16.467Z,37.10
2023-01-18T04:32:45.768Z,36.20
2023-01-18T04:35:13.326Z,36.10
2023-01-18T04:37:40.169Z,33.10
2023-01-18T04:42:34.882Z,30.20
2023-01-18T04:45:01.622Z,28.70
2023-01-18T04:47:28.667Z,31.20
2023-01-18T04:49:58.761Z,34.50
2023-01-18T04:52:26.253Z,35.10
2023-01-18T04:54:53.090Z,30.50
2023-01-18T04:57:20.657Z,33.90
2023-01-18T05:02:15.612Z,33.20
2023-01-18T05:04:43.182Z,34.90
2023-01-18T05:07:10.903Z,33.80
2023-01-18T05:09:37.730Z,36.50
2023-01-18T05:12:04.777Z,35.30
2023-01-18T05:14:31.623Z,43.90
2023-01-18T05:19:29.813Z,50.20
2023-01-18T05:21:56.866Z,44.50
2023-01-18T05:24:23.704Z,46.60
2023-01-18T05:26:50.445Z,40.90
2023-01-18T05:29:19.747Z,40.20
2023-01-18T05:34:13.645Z,39.80
2023-01-18T05:39:08.847Z,39.20
2023-01-18T05:41:35.707Z,40.40
2023-01-18T05:44:02.865Z,39.50
2023-01-18T05:46:29.804Z,38.90
2023-01-18T05:48:57.972Z,37.30
2023-01-18T05:51:25.844Z,38.10
2023-01-18T05:53:53.504Z,37.40
2023-01-18T05:56:20.459Z,41.90
2023-01-18T05:58:47.289Z,40.20
2023-01-18T06:03:41.400Z,44.80
2023-01-18T06:06:08.433Z,46.90
2023-01-18T06:11:02.340Z,39.70
2023-01-18T06:15:58.777Z,78.80
2023-01-18T06:18:29.298Z,48.40
2023-01-18T06:20:59.700Z,45.20
2023-01-18T06:23:30.370Z,44.70
2023-01-18T06:25:58.048Z,67.40
2023-01-18T06:28:27.140Z,57.10
2023-01-18T06:30:56.013Z,61.20
2023-01-18T06:33:23.881Z,59.30
2023-01-18T06:35:51.750Z,62.00
2023-01-18T06:38:18.834Z,62.10
2023-01-18T06:40:46.072Z,55.30
2023-01-18T06:43:13.711Z,48.70
2023-01-18T06:45:41.136Z,87.50
2023-01-18T06:48:08.339Z,75.80
2023-01-18T06:50:35.581Z,85.80
2023-01-18T06:53:02.931Z,92.00
2023-01-18T06:57:57.329Z,80.40
2023-01-18T07:00:24.582Z,76.50
2023-01-18T07:05:19.395Z,51.30
2023-01-18T07:07:46.135Z,47.80
2023-01-18T07:10:15.443Z,43.40
2023-01-18T07:12:47.925Z,41.40
2023-01-18T07:15:21.494Z,41.80
2023-01-18T07:17:49.892Z,45.20
2023-01-18T07:20:17.144Z,47.10
2023-01-18T07:25:18.202Z,47.00
2023-01-18T07:27:45.874Z,49.10
2023-01-18T07:30:13.349Z,60.00
2023-01-18T07:32:48.050Z,60.10
2023-01-18T07:35:17.763Z,53.70
2023-01-18T07:37:52.525Z,49.30
2023-01-18T07:40:21.600Z,46.00
2023-01-18T07:42:55.650Z,44.90
2023-01-18T07:45:22.644Z,31.40
2023-01-18T07:47:52.457Z,24.10
2023-01-18T07:50:21.348Z,15.40
2023-01-18T07:52:48.600Z,11.50
2023-01-18T07:55:15.942Z,7.60
2023-01-18T07:57:43.004Z,7.30
2023-01-18T08:00:10.666Z,6.90
2023-01-18T08:02:40.822Z,5.70
2023-01-18T08:05:10.192Z,5.90
2023-01-18T08:07:37.450Z,5.20
2023-01-18T08:10:05.312Z,4.40
2023-01-18T08:12:32.573Z,3.70
2023-01-18T08:15:00.224Z,3.20
2023-01-18T08:17:29.169Z,4.00
2023-01-18T08:19:56.368Z,3.30
2023-01-18T08:22:23.523Z,4.90
2023-01-18T08:24:50.668Z,4.40
2023-01-18T08:27:17.821Z,3.30
2023-01-18T08:32:13.764Z,3.10
2023-01-18T08:34:41.117Z,4.10
2023-01-18T08:37:07.946Z,3.00
2023-01-18T08:39:35.111Z,4.40
2023-01-18T08:42:03.278Z,4.00
2023-01-18T08:44:30.025Z,3.40
2023-01-18T08:46:58.717Z,5.00
2023-01-18T08:49:26.985Z,5.20
2023-01-18T08:51:53.826Z,7.00
2023-01-18T08:56:47.718Z,4.20
2023-01-18T08:59:14.696Z,3.90
2023-01-18T09:01:41.860Z,2.80
2023-01-18T09:09:04.910Z,3.00
2023-01-18T09:11:32.267Z,3.20
2023-01-18T09:14:01.923Z,3.50
2023-01-18T09:16:31.207Z,4.00
2023-01-18T09:18:59.551Z,3.60
2023-01-18T09:21:29.669Z,3.00
2023-01-18T09:23:58.968Z,3.50
2023-01-18T09:26:27.941Z,3.90
2023-01-18T09:28:55.113Z,3.30
2023-01-18T09:31:25.150Z,3.20
2023-01-18T09:33:53.904Z,3.60
2023-01-18T09:36:25.882Z,3.60
2023-01-18T09:38:53.029Z,3.30
2023-01-18T09:41:38.920Z,3.60
2023-01-18T09:44:16.315Z,3.00
2023-01-18T09:46:45.146Z,4.80
2023-01-18T09:49:21.058Z,4.30
2023-01-18T09:52:05.162Z,3.40
2023-01-18T09:54:42.464Z,2.90
2023-01-18T09:59:58.093Z,4.40
2023-01-18T10:02:35.446Z,3.20
2023-01-18T10:05:13.182Z,4.80
2023-01-18T10:08:11.055Z,6.10
2023-01-18T10:10:40.866Z,9.30
2023-01-18T10:13:24.398Z,8.50
2023-01-18T10:15:51.861Z,6.60
2023-01-18T10:18:19.724Z,8.40
2023-01-18T10:20:52.619Z,4.60
2023-01-18T10:23:34.201Z,4.20
2023-01-18T10:26:30.325Z,3.40
2023-01-18T10:29:05.973Z,5.20
2023-01-18T10:32:04.549Z,3.30
2023-01-18T10:34:35.098Z,4.90
2023-01-18T10:37:11.983Z,3.10
2023-01-18T10:42:22.363Z,42.10
2023-01-18T10:44:49.194Z,32.70
2023-01-18T10:47:18.038Z,23.70
2023-01-18T10:49:47.970Z,26.20
2023-01-18T10:52:31.141Z,91.80
2023-01-18T10:55:06.781Z,105.70
2023-01-18T10:57:37.202Z,58.10
2023-01-18T11:00:11.825Z,54.80
2023-01-18T11:02:40.138Z,19.40
2023-01-18T11:05:42.399Z,31.20
2023-01-18T11:08:25.048Z,36.90
2023-01-18T11:11:16.615Z,33.90
2023-01-18T11:13:49.429Z,18.00
2023-01-18T11:16:20.118Z,24.10
2023-01-18T11:19:05.707Z,9.10
2023-01-18T11:21:44.998Z,6.20
2023-01-18T11:24:28.648Z,10.70
2023-01-18T11:27:23.799Z,14.90
2023-01-18T11:29:50.841Z,6.50
2023-01-18T11:32:25.359Z,8.00
2023-01-18T11:34:59.193Z,8.40
2023-01-18T11:37:37.911Z,11.00
2023-01-18T11:40:27.568Z,4.00
2023-01-18T11:43:03.085Z,6.50
2023-01-18T11:45:39.804Z,24.70
2023-01-18T11:48:20.976Z,21.00
2023-01-18T11:50:53.758Z,3.30
2023-01-18T11:53:41.092Z,11.90
2023-01-18T11:56:07.927Z,23.50
2023-01-18T11:58:35.918Z,5.80
2023-01-18T12:01:33.758Z,5.00
2023-01-18T12:04:36.953Z,5.30
2023-01-18T12:07:16.187Z,4.70
2023-01-18T12:09:53.473Z,4.40
2023-01-18T12:15:27.279Z,4.10
2023-01-18T12:18:13.098Z,2.70
2023-01-18T12:21:03.708Z,4.60
2023-01-18T12:23:49.269Z,3.60
2023-01-18T12:26:54.955Z,3.80
2023-01-18T12:29:25.045Z,3.20
2023-01-18T12:31:57.519Z,4.00
2023-01-18T12:34:59.905Z,4.80
2023-01-18T12:37:35.954Z,3.80
2023-01-18T12:40:21.952Z,2.80
2023-01-18T12:43:11.936Z,3.20
2023-01-18T12:45:40.554Z,2.90
2023-01-18T12:48:26.203Z,2.20
2023-01-18T12:50:55.817Z,3.00
2023-01-18T12:53:37.300Z,2.80
2023-01-18T12:56:13.043Z,3.20
2023-01-18T12:58:41.107Z,3.10
2023-01-18T13:01:14.478Z,3.30
2023-01-18T13:03:45.359Z,3.50
2023-01-18T13:06:14.012Z,2.10
2023-01-18T13:08:46.924Z,4.50
2023-01-18T13:11:25.344Z,2.70
2023-01-18T13:14:13.074Z,3.20
2023-01-18T13:16:50.975Z,3.50
2023-01-18T13:19:24.824Z,4.00
2023-01-18T13:21:55.435Z,3.20
2023-01-18T13:24:22.043Z,4.40
2023-01-18T13:29:29.224Z,3.80
2023-01-18T13:31:57.344Z,2.80
2023-01-18T13:34:48.331Z,2.90
2023-01-18T13:37:41.302Z,3.90
2023-01-18T13:40:25.341Z,3.50
2023-01-18T13:42:52.796Z,2.60
2023-01-18T13:45:22.914Z,3.10
2023-01-18T13:47:54.133Z,4.70
2023-01-18T13:50:39.234Z,5.10
2023-01-18T13:53:15.208Z,7.10
2023-01-18T13:55:54.461Z,6.00
2023-01-18T13:58:25.975Z,4.50
2023-01-18T14:00:55.383Z,3.40
2023-01-18T14:03:27.602Z,4.10
2023-01-18T14:05:59.105Z,5.20
2023-01-18T14:08:30.789Z,3.20
2023-01-18T14:11:05.894Z,6.10
2023-01-18T14:13:45.187Z,3.70
2023-01-18T14:16:27.960Z,4.70
2023-01-18T14:19:00.833Z,4.10
2023-01-18T14:21:52.453Z,4.20
2023-01-18T14:24:23.218Z,4.00
2023-01-18T14:26:53.104Z,4.00
2023-01-18T14:29:28.652Z,3.40
2023-01-18T14:31:57.439Z,4.80
2023-01-18T14:34:30.252Z,4.00
2023-01-18T14:36:58.600Z,4.80
2023-01-18T14:39:27.799Z,2.90
2023-01-18T14:41:58.262Z,4.50
2023-01-18T14:44:57.828Z,4.50
2023-01-18T14:47:32.432Z,2.90
2023-01-18T14:50:03.863Z,3.50
2023-01-18T14:52:34.351Z,4.00
2023-01-18T14:55:01.504Z,4.10
2023-01-18T14:57:28.236Z,6.00
2023-01-18T15:00:03.548Z,18.00
2023-01-18T15:02:37.651Z,8.00
2023-01-18T15:05:19.332Z,5.90
2023-01-18T15:07:55.321Z,9.50
2023-01-18T15:10:23.827Z,6.80
2023-01-18T15:12:57.110Z,8.80
2023-01-18T15:15:40.095Z,12.10
2023-01-18T15:18:10.748Z,5.90
2023-01-18T15:20:47.952Z,6.80
2023-01-18T15:25:43.389Z,5.40
2023-01-18T15:28:23.008Z,5.00
2023-01-18T15:30:55.603Z,5.20
2023-01-18T15:33:24.594Z,5.20
2023-01-18T15:36:00.508Z,5.30
2023-01-18T15:38:28.011Z,5.80
2023-01-18T15:40:58.030Z,5.80
2023-01-18T15:43:35.677Z,5.90
2023-01-18T15:46:09.145Z,5.50
2023-01-18T15:48:49.027Z,7.60
2023-01-18T15:51:16.321Z,6.80
2023-01-18T15:53:51.871Z,8.10
2023-01-18T15:56:29.988Z,6.60
2023-01-18T15:59:00.504Z,7.50
2023-01-18T16:01:33.366Z,8.10
2023-01-18T16:04:09.247Z,7.20
2023-01-18T16:06:38.477Z,8.00
2023-01-18T16:09:13.420Z,7.00
2023-01-18T16:11:40.539Z,7.80
2023-01-18T16:14:33.206Z,11.10
2023-01-18T16:17:19.542Z,7.60
2023-01-18T16:19:50.510Z,9.80
2023-01-18T16:22:21.665Z,9.40
2023-01-18T16:25:03.908Z,8.40
2023-01-18T16:27:33.271Z,9.50
2023-01-18T16:30:16.909Z,5.80
2023-01-18T16:32:44.156Z,8.70
2023-01-18T16:35:17.913Z,8.80
2023-01-18T16:37:45.228Z,5.30
2023-01-18T16:40:17.183Z,6.60
2023-01-18T16:43:04.401Z,6.10
2023-01-18T16:45:35.678Z,7.00
2023-01-18T16:48:03.906Z,8.90
2023-01-18T16:50:32.527Z,12.70
2023-01-18T16:52:59.452Z,6.10
2023-01-18T16:55:26.602Z,7.00
2023-01-18T16:57:53.754Z,5.00
2023-01-18T17:00:23.901Z,5.00
2023-01-18T17:02:51.299Z,9.40
2023-01-18T17:05:18.587Z,8.40
2023-01-18T17:07:46.346Z,12.10
2023-01-18T17:10:21.184Z,37.40
2023-01-18T17:12:48.289Z,29.70
2023-01-18T17:15:15.340Z,9.80
2023-01-18T17:17:43.141Z,7.10
2023-01-18T17:20:20.325Z,10.40
2023-01-18T17:22:47.278Z,17.00
2023-01-18T17:25:14.734Z,22.00
2023-01-18T17:27:43.225Z,13.40
2023-01-18T17:30:13.265Z,17.50
2023-01-18T17:32:40.072Z,144.10
2023-01-18T17:37:35.593Z,75.40
2023-01-18T17:40:16.466Z,286.00
2023-01-18T17:42:48.230Z,227.10
2023-01-18T17:45:15.177Z,243.80
2023-01-18T17:47:43.120Z,88.50
2023-01-18T17:50:17.013Z,65.80
2023-01-18T17:52:44.000Z,87.10
2023-01-18T18:00:07.612Z,101.50
2023-01-18T18:02:35.120Z,96.90
2023-01-18T18:05:02.565Z,221.80
2023-01-18T18:07:30.179Z,152.90
2023-01-18T18:10:00.701Z,89.10
2023-01-18T18:12:32.175Z,171.90
2023-01-18T18:14:59.309Z,145.30
2023-01-18T18:17:29.470Z,254.30
2023-01-18T18:19:56.688Z,102.00
2023-01-18T18:22:24.600Z,49.40
2023-01-18T18:27:20.373Z,18.30
2023-01-18T18:29:47.846Z,15.90
2023-01-18T18:32:16.735Z,23.00
2023-01-18T18:34:45.210Z,21.90
2023-01-18T18:37:14.517Z,26.70
2023-01-18T18:39:41.871Z,16.50
2023-01-18T18:42:08.715Z,21.60
2023-01-18T18:44:36.582Z,30.00
2023-01-18T18:49:32.932Z,103.60
2023-01-18T18:51:59.982Z,56.90
2023-01-18T18:54:26.829Z,26.20
2023-01-18T18:59:21.428Z,22.60
2023-01-18T19:01:51.187Z,26.20
2023-01-18T19:04:18.197Z,72.40
2023-01-18T19:09:11.976Z,70.70
2023-01-18T19:11:47.152Z,58.50
2023-01-18T19:14:17.446Z,46.30
2023-01-18T19:16:44.379Z,48.20
2023-01-18T19:19:11.226Z,50.10
2023-01-18T19:21:39.511Z,52.40
2023-01-18T19:24:06.551Z,55.20
2023-01-18T19:29:01.214Z,64.80
2023-01-18T19:33:56.552Z,80.20
2023-01-18T19:36:24.457Z,75.50
2023-01-18T19:38:57.821Z,68.40
2023-01-18T19:41:30.636Z,67.90
2023-01-18T19:43:57.579Z,61.70
2023-01-18T19:46:26.903Z,61.30
2023-01-18T19:51:25.528Z,61.30
2023-01-18T19:53:53.860Z,53.20
2023-01-18T19:56:21.781Z,55.20
2023-01-18T19:58:51.339Z,55.80
2023-01-18T20:01:34.425Z,45.50
2023-01-18T20:04:05.506Z,49.50
2023-01-18T20:06:34.394Z,51.10
2023-01-18T20:09:01.818Z,51.80
2023-01-18T20:11:29.624Z,52.00
2023-01-18T20:13:56.511Z,46.60
2023-01-18T20:16:23.944Z,46.70
2023-01-18T20:18:52.397Z,46.20
2023-01-18T20:21:19.652Z,49.40
2023-01-18T20:23:46.694Z,54.60
2023-01-18T20:26:21.984Z,47.80
2023-01-18T20:28:53.194Z,49.70
2023-01-18T20:31:20.495Z,52.80
2023-01-18T20:33:47.894Z,56.40
2023-01-18T20:36:14.847Z,48.30
2023-01-18T20:38:41.990Z,45.70
2023-01-18T20:41:09.239Z,46.30
2023-01-18T20:43:36.393Z,79.80
2023-01-18T20:48:34.283Z,54.70
2023-01-18T20:51:03.372Z,50.20
2023-01-18T20:53:32.654Z,44.70
2023-01-18T20:56:03.523Z,45.60
2023-01-18T20:58:30.755Z,35.50
2023-01-18T21:01:05.217Z,28.40
2023-01-18T21:03:32.137Z,25.60
2023-01-18T21:05:58.995Z,28.10
2023-01-18T21:10:55.013Z,24.20
2023-01-18T21:13:24.109Z,24.10
2023-01-18T21:15:57.920Z,26.80
2023-01-18T21:18:26.500Z,25.90
2023-01-18T21:20:55.247Z,34.50
2023-01-18T21:23:26.541Z,39.50
2023-01-18T21:25:57.276Z,36.00
2023-01-18T21:28:25.551Z,31.40
2023-01-18T21:30:55.571Z,31.30
2023-01-18T21:33:24.045Z,31.90
2023-01-18T21:35:53.532Z,35.40
2023-01-18T21:38:26.541Z,37.40
2023-01-18T21:40:53.381Z,43.60
2023-01-18T21:43:40.298Z,48.40
2023-01-18T21:46:11.524Z,39.00
2023-01-18T21:48:38.450Z,50.30
2023-01-18T21:51:24.691Z,44.10
2023-01-18T21:54:10.267Z,37.70
2023-01-18T21:56:37.518Z,32.00
2023-01-18T21:59:04.406Z,27.80
2023-01-18T22:01:34.272Z,21.80
2023-01-18T22:04:21.913Z,16.90
2023-01-18T22:06:49.571Z,16.40
2023-01-18T22:09:17.438Z,21.10
2023-01-18T22:11:44.592Z,17.40
2023-01-18T22:14:11.556Z,18.70
2023-01-18T22:16:38.639Z,18.60
2023-01-18T22:19:05.729Z,15.50
2023-01-18T22:24:00.041Z,15.50
2023-01-18T22:26:28.920Z,16.50
2023-01-18T22:28:56.584Z,15.90
2023-01-18T22:31:24.762Z,16.70
2023-01-18T22:33:51.521Z,15.20
2023-01-18T22:36:18.650Z,15.40
2023-01-18T22:41:15.349Z,17.40
2023-01-18T22:43:43.072Z,17.90
2023-01-18T22:46:13.587Z,18.70
2023-01-18T22:48:41.700Z,16.70
2023-01-18T22:51:11.999Z,19.80
2023-01-18T22:53:38.944Z,17.00
2023-01-18T22:56:08.348Z,18.30
2023-01-18T22:58:35.802Z,16.60
2023-01-18T23:01:12.605Z,20.70
2023-01-18T23:03:39.720Z,29.20
2023-01-18T23:06:06.575Z,27.10
2023-01-18T23:08:44.019Z,23.20
2023-01-18T23:11:25.248Z,24.50
2023-01-18T23:14:13.295Z,26.50
2023-01-18T23:17:00.402Z,25.90
2023-01-18T23:19:30.485Z,25.10
2023-01-18T23:21:57.674Z,23.60
2023-01-18T23:24:25.132Z,22.90
2023-01-18T23:26:52.156Z,17.50
2023-01-18T23:29:19.635Z,18.00
2023-01-18T23:31:46.720Z,20.40
2023-01-18T23:36:40.779Z,19.20
2023-01-18T23:39:26.569Z,14.10
2023-01-18T23:42:12.175Z,10.60
2023-01-18T23:44:57.834Z,13.50
2023-01-18T23:47:44.042Z,12.00
2023-01-18T23:50:30.132Z,12.00
2023-01-18T23:53:18.466Z,11.80
2023-01-18T23:55:45.768Z,12.40
2023-01-18T23:58:12.670Z,11.00
